KNGU/NGU METAR and TAF weather

Enter ICAO airport designator
Station Type Date Time Source
KNGU METAR 2021/04/13 21:59 UTC NOAA

KNGU 132159Z 07007KT 10SM FEW035 BKN300 13/07 A3009 RMK AO2 SLP189 T01330072 $


Station Type Date Time Source
KNGU Decoded METAR 2021/04/13 21:59 UTC NOAA

Norfolk, Naval Air Station, VA, United States (KNGU) 36-56-01N 076-17-45W 8M
Apr 13, 2021 - 05:59 PM EDT / 2021.04.13 2159 UTC
Wind: from the ENE (070 degrees) at 8 MPH (7 KT):0
Visibility: 10 mile(s):0
Sky conditions: mostly cloudy
Temperature: 55.9 F (13.3 C)
Dew Point: 45.0 F (7.2 C)
Relative Humidity: 66%
Pressure (altimeter): 30.09 in. Hg (1018 hPa)
ob: KNGU 132159Z 07007KT 10SM FEW035 BKN300 13/07 A3009 RMK AO2 SLP189 T01330072
cycle: 22

Station Type Date Time Source
KNGU TAF 2021/04/13 15:59 UTC NOAA

TAF KNGU 1315/1415 01011G17KT 9999 FEW015 BKN035 QNH3003INS
BECMG 1322/1400 VRB04KT 9999 FEW035 FEW260 QNH3009INS
FM141000 19007KT 9999 SCT030 BKN100 QNH3010INS T17/1321Z T10/1410Z FN20002

Example: see airport list